Lochalsh, Canada
Current Conditions -  °F | °C
As of 11:00 AM on Thursday 23 Oct 2014 (Local Time) from CYXZ Reporting Station
Scattered Clouds Scattered Clouds  
Wind Chill: 39°   Ceiling: Unl
Heat Index: 43°   Visibility: 15mi
Dew Point: 37°   Wind: 6mph
Humidity: 81%   Direction: 170°S
Pressure: 30.14"   Gusts: NA
Location:  48.35°N, 84.27°W
Report Text: CYXZ 231500Z 17005KT 140V220 15SM FEW015 SCT300 06/03 A3014 RMK SC1CI2 SLP222
Loading
Personal Weather Stations






























Interactive Weather Map
Tropical Storm Tracking
New forecast layout! Learn more

10-Day Weather Forecast

Advertisements
Track Severe Weather on mobile